Al Qaysumah, Saudi Arabia
Current Conditions -  °F | °C
As of 8:00 PM on Monday 20 Oct 2014 (Local Time) from OEPA Reporting Station
Thunderstorm Thunderstorm  
Wind Chill: 88°   Ceiling: 3500
Heat Index: 93°   Visibility: 3mi
Dew Point: 70°   Wind: 21mph
Humidity: 55%   Direction: 330°NNW
Pressure: 29.77"   Gusts: NA
Location:  28.32°N, 46.12°E
Report Text: OEPA 201700Z 33018KT 5000 TS FEW030CB BKN035 31/21 Q1008 NOSIG
Loading
Personal Weather Stations






























Interactive Weather Map
Tropical Storm Tracking
New forecast layout! Learn more

10-Day Weather Forecast

Advertisements
Track Severe Weather on mobile